createdAt,value
2023-01-23T00:01:33.991Z,98.52
2023-01-23T00:04:01.164Z,98.63
2023-01-23T00:06:28.465Z,98.50
2023-01-23T00:08:58.716Z,98.58
2023-01-23T00:11:30.293Z,98.62
2023-01-23T00:13:58.952Z,98.54
2023-01-23T00:16:28.713Z,98.48
2023-01-23T00:18:56.021Z,97.98
2023-01-23T00:21:27.399Z,97.73
2023-01-23T00:23:57.316Z,97.80
2023-01-23T00:26:28.075Z,97.40
2023-01-23T00:28:55.541Z,97.35
2023-01-23T00:31:26.510Z,97.60
2023-01-23T00:34:08.361Z,97.06
2023-01-23T00:36:40.167Z,96.74
2023-01-23T00:39:17.550Z,96.61
2023-01-23T00:41:46.664Z,96.42
2023-01-23T00:44:13.832Z,96.42
2023-01-23T00:46:40.842Z,95.74
2023-01-23T00:49:07.747Z,94.76
2023-01-23T00:51:35.018Z,93.95
2023-01-23T00:54:02.860Z,93.43
2023-01-23T00:56:29.659Z,93.12
2023-01-23T00:58:56.561Z,93.34
2023-01-23T01:01:23.540Z,93.38
2023-01-23T01:03:50.524Z,93.63
2023-01-23T01:06:17.657Z,93.80
2023-01-23T01:08:44.886Z,94.07
2023-01-23T01:11:11.924Z,94.67
2023-01-23T01:13:38.931Z,95.30
2023-01-23T01:16:06.856Z,95.58
2023-01-23T01:18:34.126Z,95.71
2023-01-23T01:21:01.254Z,95.83
2023-01-23T01:23:28.088Z,96.18
2023-01-23T01:25:59.999Z,96.17
2023-01-23T01:28:30.395Z,96.23
2023-01-23T01:30:58.324Z,96.36
2023-01-23T01:33:25.836Z,96.25
2023-01-23T01:35:52.653Z,96.59
2023-01-23T01:38:19.474Z,96.98
2023-01-23T01:40:46.239Z,97.13
2023-01-23T01:43:26.593Z,96.82
2023-01-23T01:46:17.289Z,96.98
2023-01-23T01:49:11.247Z,97.49
2023-01-23T01:51:40.496Z,97.82
2023-01-23T01:54:31.095Z,97.77
2023-01-23T01:57:14.750Z,98.10
2023-01-23T02:00:09.490Z,98.27
2023-01-23T02:02:54.863Z,98.31
2023-01-23T02:05:26.741Z,98.22
2023-01-23T02:08:11.140Z,97.83
2023-01-23T02:10:38.527Z,97.72
2023-01-23T02:13:32.617Z,97.66
2023-01-23T02:16:03.852Z,97.17
2023-01-23T02:18:32.047Z,96.98
2023-01-23T02:21:04.972Z,96.90
2023-01-23T02:23:57.353Z,96.22
2023-01-23T02:26:30.346Z,95.84
2023-01-23T02:28:57.475Z,95.63
2023-01-23T02:31:24.407Z,94.89
2023-01-23T02:33:55.225Z,93.53
2023-01-23T02:36:29.617Z,92.34
2023-01-23T02:39:03.886Z,92.09
2023-01-23T02:41:39.091Z,90.36
2023-01-23T02:44:33.799Z,88.62
2023-01-23T02:47:12.532Z,87.95
2023-01-23T02:49:40.482Z,86.79
2023-01-23T02:52:07.435Z,85.92
2023-01-23T02:54:34.309Z,85.71
2023-01-23T02:57:01.255Z,85.45
2023-01-23T02:59:46.826Z,84.51
2023-01-23T03:02:14.669Z,83.72
2023-01-23T03:04:41.896Z,82.92
2023-01-23T03:07:11.475Z,82.39
2023-01-23T03:09:38.279Z,81.61
2023-01-23T03:12:05.248Z,81.56
2023-01-23T03:14:32.504Z,81.42
2023-01-23T03:16:59.284Z,81.28
2023-01-23T03:19:27.221Z,80.90
2023-01-23T03:21:54.836Z,80.92
2023-01-23T03:24:21.845Z,81.10
2023-01-23T03:26:50.627Z,81.25
2023-01-23T03:29:42.511Z,80.57
2023-01-23T03:32:11.163Z,82.20
2023-01-23T03:34:38.247Z,81.92
2023-01-23T03:37:05.623Z,81.80
2023-01-23T03:39:51.115Z,82.29
2023-01-23T03:42:17.925Z,83.69
2023-01-23T03:44:44.708Z,83.44
2023-01-23T03:47:11.507Z,83.66
2023-01-23T03:49:38.288Z,84.05
2023-01-23T03:52:05.284Z,83.57
2023-01-23T03:54:32.322Z,83.72
2023-01-23T03:56:59.132Z,83.13
2023-01-23T03:59:25.913Z,83.08
2023-01-23T04:01:52.685Z,84.17
2023-01-23T04:04:19.579Z,84.25
2023-01-23T04:06:46.382Z,84.34
2023-01-23T04:09:13.286Z,84.53
2023-01-23T04:11:40.057Z,84.91
2023-01-23T04:14:06.864Z,83.52
2023-01-23T04:16:33.768Z,83.53
2023-01-23T04:19:00.514Z,84.18
2023-01-23T04:21:27.385Z,84.95
2023-01-23T04:23:54.168Z,84.59
2023-01-23T04:26:20.984Z,85.03
2023-01-23T04:28:47.759Z,84.79
2023-01-23T04:31:14.628Z,85.01
2023-01-23T04:33:41.461Z,85.34
2023-01-23T04:36:08.509Z,85.30
2023-01-23T04:38:35.663Z,86.11
2023-01-23T04:41:03.592Z,86.51
2023-01-23T04:43:30.750Z,86.27
2023-01-23T04:45:57.951Z,86.04
2023-01-23T04:48:25.267Z,86.09
2023-01-23T04:50:52.249Z,86.64
2023-01-23T04:53:19.935Z,86.38
2023-01-23T04:55:49.181Z,86.46
2023-01-23T04:58:19.156Z,87.08
2023-01-23T05:00:46.773Z,86.28
2023-01-23T05:03:14.805Z,86.42
2023-01-23T05:05:44.242Z,86.58
2023-01-23T05:08:14.365Z,87.08
2023-01-23T05:10:41.193Z,86.86
2023-01-23T05:13:10.223Z,86.80
2023-01-23T05:15:37.013Z,87.14
2023-01-23T05:18:03.896Z,86.83
2023-01-23T05:20:30.652Z,86.24
2023-01-23T05:22:58.627Z,86.39
2023-01-23T05:25:28.678Z,86.10
2023-01-23T05:27:55.756Z,86.45
2023-01-23T05:30:23.842Z,86.58
2023-01-23T05:32:50.992Z,86.47
2023-01-23T05:35:18.233Z,86.79
2023-01-23T05:37:52.341Z,86.51
2023-01-23T05:40:20.899Z,85.98
2023-01-23T05:42:48.331Z,85.82
2023-01-23T05:45:15.510Z,86.50
2023-01-23T05:47:42.603Z,86.14
2023-01-23T05:50:16.371Z,85.68
2023-01-23T05:52:43.683Z,85.40
2023-01-23T05:55:10.783Z,85.70
2023-01-23T05:57:37.586Z,86.06
2023-01-23T06:00:07.087Z,85.64
2023-01-23T06:02:34.939Z,85.54
2023-01-23T06:05:01.835Z,85.51
2023-01-23T06:07:28.620Z,85.13
2023-01-23T06:09:55.418Z,84.90
2023-01-23T06:12:22.172Z,85.05
2023-01-23T06:14:49.065Z,84.78
2023-01-23T06:17:16.044Z,85.47
2023-01-23T06:19:42.842Z,84.63
2023-01-23T06:22:09.633Z,85.09
2023-01-23T06:24:36.396Z,84.74
2023-01-23T06:27:08.225Z,84.59
2023-01-23T06:29:36.292Z,85.08
2023-01-23T06:32:04.382Z,85.75
2023-01-23T06:34:31.199Z,85.82
2023-01-23T06:36:57.953Z,85.57
2023-01-23T06:39:24.784Z,86.07
2023-01-23T06:41:51.604Z,85.32
2023-01-23T06:44:18.351Z,85.21
2023-01-23T06:46:45.154Z,85.10
2023-01-23T06:49:11.963Z,85.31
2023-01-23T06:51:38.777Z,85.08
2023-01-23T06:54:06.177Z,85.57
2023-01-23T06:56:32.929Z,85.46
2023-01-23T06:58:59.639Z,85.78
2023-01-23T07:01:26.666Z,85.14
2023-01-23T07:03:53.657Z,84.97
2023-01-23T07:06:20.399Z,85.47
2023-01-23T07:08:47.480Z,85.24
2023-01-23T07:11:14.234Z,85.17
2023-01-23T07:13:41.072Z,84.96
2023-01-23T07:16:08.379Z,84.95
2023-01-23T07:18:36.112Z,85.02
2023-01-23T07:21:06.493Z,85.54
2023-01-23T07:23:34.482Z,85.60
2023-01-23T07:26:03.729Z,85.42
2023-01-23T07:28:31.239Z,86.09
2023-01-23T07:30:59.738Z,86.15
2023-01-23T07:33:26.851Z,86.01
2023-01-23T07:35:53.975Z,85.86
2023-01-23T07:38:23.438Z,85.74
2023-01-23T07:40:51.671Z,86.02
2023-01-23T07:43:18.904Z,86.40
2023-01-23T07:45:45.769Z,86.01
2023-01-23T07:48:12.557Z,86.08
2023-01-23T07:50:39.482Z,85.76
2023-01-23T07:53:06.779Z,86.71
2023-01-23T07:55:34.130Z,86.40
2023-01-23T07:58:01.034Z,86.45
2023-01-23T08:00:29.764Z,86.56
2023-01-23T08:02:57.230Z,87.03
2023-01-23T08:05:24.721Z,86.63
2023-01-23T08:08:00.740Z,86.63
2023-01-23T08:10:34.250Z,87.15
2023-01-23T08:13:00.991Z,86.98
2023-01-23T08:15:27.801Z,86.91
2023-01-23T08:17:54.520Z,87.75
2023-01-23T08:20:23.167Z,86.94
2023-01-23T08:22:49.944Z,86.64
2023-01-23T08:25:16.936Z,86.78
2023-01-23T08:27:43.682Z,86.35
2023-01-23T08:30:11.277Z,86.61
2023-01-23T08:32:38.022Z,86.62
2023-01-23T08:35:05.303Z,86.62
2023-01-23T08:37:33.755Z,86.37
2023-01-23T08:40:00.643Z,86.04
2023-01-23T08:42:27.682Z,85.77
2023-01-23T08:44:54.432Z,86.32
2023-01-23T08:47:21.400Z,85.79
2023-01-23T08:49:48.142Z,85.48
2023-01-23T08:52:14.962Z,85.45
2023-01-23T08:54:41.688Z,85.56
2023-01-23T08:57:08.508Z,85.42
2023-01-23T08:59:35.269Z,85.51
2023-01-23T09:02:02.544Z,85.97
2023-01-23T09:04:29.422Z,86.11
2023-01-23T09:06:56.162Z,84.82
2023-01-23T09:09:23.079Z,84.96
2023-01-23T09:11:49.831Z,84.43
2023-01-23T09:14:16.686Z,84.80
2023-01-23T09:16:43.450Z,85.42
2023-01-23T09:19:12.155Z,84.67
2023-01-23T09:21:38.957Z,84.61
2023-01-23T09:24:06.063Z,85.05
2023-01-23T09:26:32.894Z,84.87
2023-01-23T09:28:59.607Z,84.70
2023-01-23T09:31:26.418Z,84.82
2023-01-23T09:33:53.208Z,85.35
2023-01-23T09:36:27.480Z,85.37
2023-01-23T09:39:00.828Z,85.46
2023-01-23T09:41:29.101Z,85.22
2023-01-23T09:44:20.955Z,85.25
2023-01-23T09:47:04.962Z,85.43
2023-01-23T09:50:06.425Z,85.49
2023-01-23T09:52:43.018Z,85.67
2023-01-23T09:55:45.583Z,85.18
2023-01-23T09:58:23.288Z,84.92
2023-01-23T10:00:51.955Z,84.81
2023-01-23T10:03:19.558Z,84.37
2023-01-23T10:06:27.627Z,84.12
2023-01-23T10:09:23.868Z,84.29
2023-01-23T10:12:17.259Z,84.70
2023-01-23T10:15:12.766Z,84.74
2023-01-23T10:18:10.396Z,84.59
2023-01-23T10:21:07.261Z,84.18
2023-01-23T10:23:54.269Z,84.21
2023-01-23T10:26:26.229Z,84.45
2023-01-23T10:29:03.678Z,84.91
2023-01-23T10:31:44.456Z,85.40
2023-01-23T10:34:11.312Z,84.50
2023-01-23T10:36:55.114Z,84.56
2023-01-23T10:39:37.865Z,84.71
2023-01-23T10:42:12.548Z,84.33
2023-01-23T10:44:39.862Z,84.01
2023-01-23T10:47:25.480Z,84.71
2023-01-23T10:49:53.384Z,84.26
2023-01-23T10:52:38.054Z,83.52
2023-01-23T10:55:20.445Z,83.21
2023-01-23T10:57:50.101Z,83.11
2023-01-23T11:00:29.622Z,83.65
2023-01-23T11:02:56.478Z,83.54
2023-01-23T11:05:51.167Z,83.11
2023-01-23T11:08:27.811Z,83.49
2023-01-23T11:11:17.808Z,82.85
2023-01-23T11:13:50.851Z,83.33
2023-01-23T11:16:23.367Z,82.76
2023-01-23T11:19:03.593Z,82.83
2023-01-23T11:21:34.720Z,83.36
2023-01-23T11:24:30.613Z,83.48
2023-01-23T11:27:05.418Z,83.14
2023-01-23T11:30:25.659Z,83.34
2023-01-23T11:33:02.277Z,83.20
2023-01-23T11:35:34.616Z,82.54
2023-01-23T11:38:04.198Z,83.24
2023-01-23T11:40:31.559Z,82.57
2023-01-23T11:42:58.367Z,82.49
2023-01-23T11:45:49.268Z,82.56
2023-01-23T11:48:55.683Z,82.79
2023-01-23T11:52:19.348Z,82.42
2023-01-23T11:55:11.117Z,83.13
2023-01-23T11:58:21.140Z,83.01
2023-01-23T12:01:06.309Z,83.35
2023-01-23T12:03:57.456Z,83.99
2023-01-23T12:07:03.053Z,83.58
2023-01-23T12:09:45.854Z,83.01
2023-01-23T12:12:39.675Z,83.15
2023-01-23T12:15:26.553Z,82.67
2023-01-23T12:18:34.911Z,82.29
2023-01-23T12:21:33.209Z,82.09
2023-01-23T12:24:27.472Z,82.25
2023-01-23T12:27:42.880Z,82.25
2023-01-23T12:30:43.107Z,81.41
2023-01-23T12:34:10.662Z,81.27
2023-01-23T12:37:29.969Z,81.82
2023-01-23T12:39:59.975Z,81.59
2023-01-23T12:43:00.525Z,81.45
2023-01-23T12:45:30.289Z,81.42
2023-01-23T12:48:06.951Z,80.81
2023-01-23T12:50:49.934Z,80.56
2023-01-23T12:53:21.346Z,81.53
2023-01-23T12:56:07.989Z,81.04
2023-01-23T12:58:38.106Z,81.09
2023-01-23T13:01:21.030Z,80.99
2023-01-23T13:04:29.728Z,81.38
2023-01-23T13:06:59.437Z,82.59
2023-01-23T13:10:02.611Z,82.41
2023-01-23T13:12:31.107Z,82.22
2023-01-23T13:15:18.978Z,82.72
2023-01-23T13:18:01.580Z,82.99
2023-01-23T13:20:53.178Z,82.90
2023-01-23T13:23:20.031Z,83.09
2023-01-23T13:25:47.552Z,83.38
2023-01-23T13:28:45.915Z,83.72
2023-01-23T13:31:47.276Z,83.79
2023-01-23T13:34:17.151Z,83.94
2023-01-23T13:36:54.248Z,83.80
2023-01-23T13:39:28.147Z,83.66
2023-01-23T13:42:15.789Z,83.51
2023-01-23T13:45:16.401Z,83.80
2023-01-23T14:22:47.769Z,85.44
2023-01-23T14:25:17.831Z,85.01
2023-01-23T14:27:53.204Z,85.55
2023-01-23T14:30:26.923Z,85.42
2023-01-23T14:32:54.708Z,86.07
2023-01-23T14:35:32.793Z,86.28
2023-01-23T14:38:05.224Z,86.18
2023-01-23T14:40:46.768Z,86.34
2023-01-23T14:43:30.137Z,87.29
2023-01-23T14:46:08.298Z,87.22
2023-01-23T14:48:39.301Z,87.79
2023-01-23T14:51:19.784Z,87.25
2023-01-23T14:54:10.239Z,87.16
2023-01-23T14:56:39.512Z,87.26
2023-01-23T14:59:18.129Z,87.25
2023-01-23T15:02:03.370Z,86.85
2023-01-23T15:04:32.259Z,86.71
2023-01-23T15:07:01.885Z,86.90
2023-01-23T15:09:37.564Z,87.45
2023-01-23T15:12:18.167Z,87.50
2023-01-23T15:14:45.619Z,87.71
2023-01-23T15:17:20.455Z,87.80
2023-01-23T15:20:04.196Z,87.67
2023-01-23T15:22:32.784Z,87.41
2023-01-23T15:25:32.920Z,87.26
2023-01-23T15:27:59.682Z,88.32
2023-01-23T15:30:46.554Z,87.55
2023-01-23T15:33:26.554Z,87.66
2023-01-23T15:36:06.769Z,87.67
2023-01-23T15:38:34.229Z,87.86
2023-01-23T15:41:01.272Z,88.29
2023-01-23T15:43:28.108Z,88.14
2023-01-23T15:45:55.878Z,88.50
2023-01-23T15:48:22.656Z,88.59
2023-01-23T15:50:49.437Z,88.35
2023-01-23T15:53:16.341Z,88.44
2023-01-23T15:55:43.537Z,88.39
2023-01-23T15:58:17.431Z,88.27
2023-01-23T16:00:44.478Z,87.91
2023-01-23T16:03:14.652Z,88.36
2023-01-23T16:05:41.961Z,88.42
2023-01-23T16:08:34.792Z,88.52
2023-01-23T16:11:01.585Z,88.91
2023-01-23T16:13:28.360Z,88.50
2023-01-23T16:15:55.164Z,88.58
2023-01-23T16:18:23.963Z,88.10
2023-01-23T16:20:50.859Z,88.12
2023-01-23T16:23:24.831Z,88.20
2023-01-23T16:25:52.365Z,87.98
2023-01-23T16:28:22.969Z,88.27
2023-01-23T16:30:51.916Z,88.70
2023-01-23T16:33:20.296Z,88.79
2023-01-23T16:35:49.026Z,88.18
2023-01-23T16:38:26.554Z,88.20
2023-01-23T16:40:55.112Z,88.61
2023-01-23T16:43:22.373Z,88.62
2023-01-23T16:45:49.517Z,88.25
2023-01-23T16:48:26.374Z,88.46
2023-01-23T16:51:01.084Z,88.72
2023-01-23T16:53:36.372Z,88.79
2023-01-23T16:56:04.830Z,89.05
2023-01-23T16:58:41.184Z,89.32
2023-01-23T17:01:20.625Z,90.06
2023-01-23T17:03:56.747Z,89.46
2023-01-23T17:06:23.536Z,89.44
2023-01-23T17:08:50.605Z,90.29
2023-01-23T17:11:28.392Z,89.55
2023-01-23T17:14:02.032Z,89.18
2023-01-23T17:16:29.761Z,89.52
2023-01-23T17:19:09.753Z,90.07
2023-01-23T17:21:36.683Z,89.75
2023-01-23T17:24:03.692Z,89.86
2023-01-23T17:26:30.571Z,89.83
2023-01-23T17:28:57.405Z,90.13
2023-01-23T17:31:28.516Z,90.68
2023-01-23T17:33:58.399Z,90.53
2023-01-23T17:36:26.458Z,90.28
2023-01-23T17:38:59.089Z,90.36
2023-01-23T17:41:25.975Z,90.45
2023-01-23T17:43:52.854Z,90.34
2023-01-23T17:46:27.087Z,90.99
2023-01-23T17:48:55.796Z,91.04
2023-01-23T17:51:24.431Z,90.86
2023-01-23T17:53:52.202Z,91.44
2023-01-23T17:56:19.020Z,91.64
2023-01-23T17:58:45.908Z,91.24
2023-01-23T18:01:22.383Z,91.31
2023-01-23T18:03:51.370Z,91.73
2023-01-23T18:06:20.991Z,91.67
2023-01-23T18:08:47.797Z,91.97
2023-01-23T18:11:22.858Z,92.96
2023-01-23T18:14:08.202Z,93.16
2023-01-23T18:16:49.856Z,92.97
2023-01-23T18:19:23.441Z,92.89
2023-01-23T18:21:54.152Z,93.53
2023-01-23T18:24:32.905Z,93.15
2023-01-23T18:27:11.800Z,93.06
2023-01-23T18:30:01.470Z,92.85
2023-01-23T18:32:40.007Z,93.29
2023-01-23T18:35:34.087Z,93.34
2023-01-23T18:38:12.709Z,93.74
2023-01-23T18:40:59.860Z,93.25
2023-01-23T18:43:40.039Z,93.83
2023-01-23T18:46:20.326Z,94.42
2023-01-23T18:48:49.691Z,94.57
2023-01-23T18:51:47.248Z,94.47
2023-01-23T18:54:23.809Z,95.06
2023-01-23T18:57:46.380Z,94.76
2023-01-23T19:00:25.956Z,94.19
2023-01-23T19:02:58.583Z,94.33
2023-01-23T19:05:33.815Z,93.93
2023-01-23T19:08:02.364Z,94.38
2023-01-23T19:10:46.741Z,94.59
2023-01-23T19:13:29.762Z,95.30
2023-01-23T19:16:14.300Z,95.03
2023-01-23T19:18:41.043Z,95.36
2023-01-23T19:21:26.793Z,95.84
2023-01-23T19:24:03.625Z,96.03
2023-01-23T19:26:36.840Z,96.04
2023-01-23T19:29:20.509Z,95.56
2023-01-23T19:32:03.558Z,95.82
2023-01-23T19:34:31.469Z,96.31
2023-01-23T19:36:58.198Z,96.90
2023-01-23T19:39:24.945Z,97.64
2023-01-23T19:41:53.336Z,96.58
2023-01-23T19:44:24.349Z,96.31
2023-01-23T19:46:52.000Z,96.77
2023-01-23T19:49:19.032Z,96.25
2023-01-23T19:51:46.348Z,95.62
2023-01-23T19:54:15.275Z,96.60
2023-01-23T19:56:42.587Z,96.82
2023-01-23T19:59:09.939Z,97.65
2023-01-23T20:01:46.806Z,97.91
2023-01-23T20:04:17.751Z,98.01
2023-01-23T20:06:49.117Z,98.27
2023-01-23T20:09:16.236Z,97.92
2023-01-23T20:11:44.887Z,97.91
2023-01-23T20:14:12.494Z,97.75
2023-01-23T20:16:43.127Z,97.47
2023-01-23T20:19:14.405Z,96.79
2023-01-23T20:21:41.190Z,97.05
2023-01-23T20:24:08.449Z,96.93
2023-01-23T20:26:35.901Z,97.23
2023-01-23T20:29:04.085Z,97.03
2023-01-23T20:31:32.023Z,97.17
2023-01-23T20:33:59.060Z,97.16
2023-01-23T20:36:25.871Z,97.08
2023-01-23T20:38:52.627Z,96.81
2023-01-23T20:41:20.856Z,97.04
2023-01-23T20:43:48.148Z,97.74
2023-01-23T20:46:16.267Z,97.81
2023-01-23T20:48:45.197Z,97.37
2023-01-23T20:51:15.271Z,97.88
2023-01-23T20:53:42.839Z,97.50
2023-01-23T20:56:13.432Z,97.66
2023-01-23T20:59:02.137Z,97.27
2023-01-23T21:01:52.551Z,97.76
2023-01-23T21:04:19.861Z,98.03
2023-01-23T21:06:46.662Z,98.06
2023-01-23T21:09:13.654Z,98.19
2023-01-23T21:11:40.515Z,98.20
2023-01-23T21:14:07.264Z,98.50
2023-01-23T21:16:34.041Z,98.65
2023-01-23T21:19:01.177Z,98.77
2023-01-23T21:21:27.984Z,98.26
2023-01-23T21:23:54.839Z,98.45
2023-01-23T21:26:25.486Z,99.32
2023-01-23T21:28:54.751Z,98.88
2023-01-23T21:31:29.110Z,98.93
2023-01-23T21:33:59.328Z,99.13
2023-01-23T21:36:26.115Z,99.25
2023-01-23T21:38:54.088Z,99.07
2023-01-23T21:41:21.744Z,99.23
2023-01-23T21:43:48.674Z,99.69
2023-01-23T21:46:16.167Z,100.00
2023-01-23T21:48:43.337Z,99.76
2023-01-23T21:51:15.644Z,100.00
2023-01-23T21:53:45.717Z,99.88
2023-01-23T21:56:15.263Z,99.76
2023-01-23T21:58:44.722Z,99.57
2023-01-23T22:01:35.859Z,99.53
2023-01-23T22:04:05.881Z,99.43
2023-01-23T22:06:34.265Z,99.72
2023-01-23T22:09:01.664Z,99.63
2023-01-23T22:11:28.815Z,99.97
2023-01-23T22:13:56.090Z,99.74
2023-01-23T22:16:40.150Z,99.15
2023-01-23T22:19:15.412Z,99.42
2023-01-23T22:21:43.860Z,99.94
2023-01-23T22:24:10.771Z,99.36
2023-01-23T22:26:37.607Z,99.70
2023-01-23T22:29:04.376Z,99.46
2023-01-23T22:31:31.200Z,99.47
2023-01-23T22:33:58.173Z,99.95
2023-01-23T22:36:25.200Z,99.86
2023-01-23T22:38:53.736Z,99.92
2023-01-23T22:41:20.880Z,99.45
2023-01-23T22:43:52.628Z,98.77
2023-01-23T22:46:19.626Z,99.08
2023-01-23T22:48:46.431Z,99.25
2023-01-23T22:51:20.102Z,99.37
2023-01-23T22:53:47.268Z,99.34
2023-01-23T22:56:14.477Z,99.19
2023-01-23T22:58:49.351Z,99.74
2023-01-23T23:01:17.289Z,99.68
2023-01-23T23:03:44.955Z,99.66
2023-01-23T23:06:14.839Z,99.94
2023-01-23T23:08:41.996Z,99.43
2023-01-23T23:11:18.430Z,99.49
2023-01-23T23:13:46.197Z,99.58
2023-01-23T23:16:28.896Z,100.00
2023-01-23T23:18:58.759Z,99.63
2023-01-23T23:21:30.323Z,100.00
2023-01-23T23:23:59.067Z,100.00
2023-01-23T23:26:28.277Z,99.99
2023-01-23T23:28:55.650Z,100.00
2023-01-23T23:31:22.575Z,100.00
2023-01-23T23:33:49.706Z,100.00
2023-01-23T23:36:16.953Z,100.00
2023-01-23T23:38:44.507Z,100.00
2023-01-23T23:41:15.814Z,100.00
2023-01-23T23:43:43.757Z,100.00
2023-01-23T23:46:12.702Z,100.00
2023-01-23T23:48:39.653Z,100.00
2023-01-23T23:51:10.716Z,100.00
2023-01-23T23:53:37.607Z,100.00
2023-01-23T23:56:05.601Z,100.00
2023-01-23T23:58:35.702Z,99.80
